Time;durP1;ratioP1;P1;durP2;ratioP2;P2;SDS_P1;SDS_P2;PMS_P1;PMS_P2;Temp;Humidity;BMP_temperature;BMP_pressure;BME280_temperature;BME280_humidity;BME280_pressure;Samples;Min_cycle;Max_cycle;Signal;HPM_P1;HPM_P2
2024/03/21 00:01:35;;;;;;;0.90;0.90;;;17.50;74.40;;;;;;4960162;28;20100;-76
2024/03/21 00:04:01;;;;;;;0.77;0.77;;;17.40;74.40;;;;;;4990422;28;20555;-76
2024/03/21 00:06:27;;;;;;;0.90;0.90;;;17.40;74.20;;;;;;4957845;28;20137;-76
2024/03/21 00:08:52;;;;;;;0.57;0.57;;;17.40;74.40;;;;;;4991569;28;20050;-76
2024/03/21 00:11:19;;;;;;;0.75;0.75;;;17.40;74.40;;;;;;4992456;28;20129;-75
2024/03/21 00:13:45;;;;;;;0.68;0.68;;;17.40;74.30;;;;;;4974175;28;20109;-75
2024/03/21 00:16:12;;;;;;;0.63;0.63;;;17.40;74.30;;;;;;4991181;28;20042;-75
2024/03/21 00:18:37;;;;;;;0.80;0.80;;;17.40;74.30;;;;;;5003830;28;20043;-75
2024/03/21 00:21:04;;;;;;;0.88;0.73;;;17.40;74.40;;;;;;4971817;28;20578;-76
2024/03/21 00:23:30;;;;;;;0.77;0.77;;;17.40;74.40;;;;;;4968298;28;20043;-75
2024/03/21 00:25:59;;;;;;;0.60;0.60;;;17.40;74.30;;;;;;4988539;28;20058;-77
2024/03/21 00:28:25;;;;;;;0.70;0.70;;;17.40;74.30;;;;;;4985660;28;20042;-75
2024/03/21 00:30:54;;;;;;;0.98;0.90;;;17.40;74.30;;;;;;4987459;28;20086;-76
2024/03/21 00:33:20;;;;;;;0.82;0.82;;;17.40;74.30;;;;;;4982168;28;20050;-75
2024/03/21 00:35:46;;;;;;;0.90;0.90;;;17.40;74.30;;;;;;4969758;28;20044;-76
2024/03/21 00:38:12;;;;;;;0.65;0.60;;;17.40;74.40;;;;;;4986588;28;20046;-76
2024/03/21 00:40:38;;;;;;;0.80;0.80;;;17.40;74.40;;;;;;4988882;28;20069;-76
2024/03/21 00:43:04;;;;;;;1.10;0.90;;;17.40;74.50;;;;;;4986472;28;20496;-76
2024/03/21 00:45:29;;;;;;;0.73;0.73;;;17.40;74.40;;;;;;5005876;28;20042;-76
2024/03/21 00:47:56;;;;;;;1.00;1.00;;;17.40;74.40;;;;;;5005655;28;20104;-77
2024/03/21 00:50:22;;;;;;;0.77;0.77;;;17.40;74.40;;;;;;4955303;28;20048;-76
2024/03/21 00:52:47;;;;;;;0.70;0.70;;;17.40;74.40;;;;;;4956318;28;20050;-76
2024/03/21 00:55:13;;;;;;;0.70;0.70;;;17.40;74.40;;;;;;5004313;28;20066;-76
2024/03/21 00:57:39;;;;;;;0.93;0.93;;;17.30;74.40;;;;;;4989927;28;20511;-76
2024/03/21 01:00:07;;;;;;;0.85;0.77;;;17.40;74.60;;;;;;4989274;28;20047;-76
2024/03/21 01:02:34;;;;;;;0.73;0.73;;;17.30;74.30;;;;;;4973036;28;20471;-76
2024/03/21 01:04:59;;;;;;;0.85;0.85;;;17.30;74.40;;;;;;4954734;28;22223;-86
2024/03/21 01:07:25;;;;;;;1.00;0.90;;;17.40;75.20;;;;;;4971735;28;20464;-86
2024/03/21 01:09:50;;;;;;;0.70;0.70;;;17.30;74.30;;;;;;4988185;28;20042;-86
2024/03/21 01:12:16;;;;;;;0.68;0.57;;;17.30;74.40;;;;;;4989042;28;20038;-87
2024/03/21 01:14:42;;;;;;;0.77;0.77;;;17.30;74.40;;;;;;4988749;28;20065;-86
2024/03/21 01:17:07;;;;;;;0.70;0.70;;;17.30;74.40;;;;;;4986912;28;20134;-86
2024/03/21 01:19:35;;;;;;;1.00;0.90;;;17.30;74.40;;;;;;4986591;28;20030;-85
2024/03/21 01:22:00;;;;;;;0.80;0.80;;;17.30;74.30;;;;;;4986625;28;20047;-85
2024/03/21 01:24:26;;;;;;;0.82;0.82;;;17.30;74.30;;;;;;4986536;28;20044;-85
2024/03/21 01:26:52;;;;;;;0.70;0.70;;;17.30;74.40;;;;;;4971061;28;20484;-86
2024/03/21 01:29:17;;;;;;;0.70;0.70;;;17.30;74.20;;;;;;4969286;28;20058;-87
2024/03/21 01:31:43;;;;;;;0.70;0.70;;;17.30;74.20;;;;;;4953214;28;20504;-87
2024/03/21 01:34:09;;;;;;;1.15;0.60;;;17.30;74.30;;;;;;4984832;28;20417;-86
2024/03/21 01:36:44;;;;;;;0.50;0.50;;;17.30;74.30;;;;;;4970843;28;20518;-87
2024/03/21 01:39:10;;;;;;;1.27;1.20;;;17.30;74.60;;;;;;4987783;28;20042;-87
2024/03/21 01:41:36;;;;;;;0.50;0.50;;;17.30;74.40;;;;;;4982382;28;20043;-90
2024/03/21 01:44:01;;;;;;;0.82;0.82;;;17.30;74.40;;;;;;4986984;28;20088;-88
2024/03/21 01:46:27;;;;;;;0.60;0.60;;;17.30;75.00;;;;;;4986571;28;20047;-86
2024/03/21 01:48:53;;;;;;;0.50;0.50;;;17.30;74.30;;;;;;4987973;28;20077;-87
2024/03/21 01:51:20;;;;;;;1.15;1.15;;;17.30;74.30;;;;;;4973088;28;20483;-87
2024/03/21 01:53:47;;;;;;;0.85;0.63;;;17.30;74.20;;;;;;4969992;28;20134;-86
2024/03/21 01:56:13;;;;;;;0.70;0.70;;;17.30;74.30;;;;;;4951435;28;20089;-86
2024/03/21 01:58:39;;;;;;;0.82;0.63;;;17.30;74.20;;;;;;4983054;28;20558;-86
2024/03/21 02:01:24;;;;;;;0.63;0.63;;;17.30;74.20;;;;;;4985409;28;20070;-86
2024/03/21 02:03:52;;;;;;;0.70;0.70;;;17.20;74.20;;;;;;4984801;28;20046;-86
2024/03/21 02:06:20;;;;;;;0.70;0.70;;;17.30;74.20;;;;;;4986459;28;20066;-86
2024/03/21 02:08:46;;;;;;;0.68;0.68;;;17.30;74.10;;;;;;4985381;28;20093;-88
2024/03/21 02:11:12;;;;;;;0.80;0.80;;;17.30;74.10;;;;;;4985931;28;20050;-87
2024/03/21 02:13:38;;;;;;;0.70;0.70;;;17.20;74.10;;;;;;4987881;28;20046;-87
2024/03/21 02:16:04;;;;;;;0.80;0.80;;;17.30;74.30;;;;;;4987330;28;20144;-87
2024/03/21 02:18:29;;;;;;;0.70;0.70;;;17.30;74.00;;;;;;4986188;28;20050;-88
2024/03/21 02:20:55;;;;;;;0.77;0.77;;;17.30;74.00;;;;;;4986558;28;20046;-86
2024/03/21 02:23:20;;;;;;;0.70;0.70;;;17.30;74.10;;;;;;4968893;28;20065;-87
2024/03/21 02:25:47;;;;;;;0.95;0.57;;;17.20;74.10;;;;;;4984990;28;20508;-86
2024/03/21 02:28:13;;;;;;;0.60;0.60;;;17.30;74.00;;;;;;4969968;28;20050;-89
2024/03/21 02:30:38;;;;;;;0.82;0.82;;;17.30;74.10;;;;;;4975307;28;20890;-88
2024/03/21 02:33:04;;;;;;;0.75;0.75;;;17.20;74.30;;;;;;4972496;28;20639;-86
2024/03/21 02:35:30;;;;;;;0.60;0.60;;;17.20;74.00;;;;;;4986724;28;20061;-85
2024/03/21 02:37:56;;;;;;;0.60;0.60;;;17.20;74.00;;;;;;4982564;28;21836;-87
2024/03/21 02:40:22;;;;;;;0.70;0.70;;;17.20;74.00;;;;;;4983968;28;20561;-86
2024/03/21 02:42:47;;;;;;;0.50;0.50;;;17.20;74.10;;;;;;4986634;28;20054;-85
2024/03/21 02:45:13;;;;;;;0.57;0.50;;;17.20;74.00;;;;;;4985013;28;21066;-86
2024/03/21 02:47:38;;;;;;;1.42;0.93;;;17.20;74.00;;;;;;4972496;28;20041;-84
2024/03/21 02:50:04;;;;;;;0.93;0.90;;;17.20;74.00;;;;;;4985652;28;20038;-88
2024/03/21 02:52:30;;;;;;;0.70;0.70;;;17.20;74.00;;;;;;4969421;28;20516;-88
2024/03/21 02:54:56;;;;;;;0.80;0.80;;;17.20;74.00;;;;;;4982726;28;20041;-81
2024/03/21 02:57:21;;;;;;;0.77;0.77;;;17.20;74.00;;;;;;4954791;28;20366;-87
2024/03/21 02:59:47;;;;;;;0.60;0.60;;;17.20;74.00;;;;;;4983350;28;20047;-88
2024/03/21 03:02:15;;;;;;;0.70;0.70;;;17.20;74.00;;;;;;4954681;28;20077;-85
2024/03/21 03:04:40;;;;;;;0.55;0.55;;;17.20;74.00;;;;;;4985039;28;20045;-86
2024/03/21 03:07:06;;;;;;;0.70;0.70;;;17.20;74.10;;;;;;4991721;28;20042;-84
2024/03/21 03:09:31;;;;;;;0.60;0.60;;;17.20;74.10;;;;;;4998102;28;20137;-85
2024/03/21 03:11:57;;;;;;;0.80;0.77;;;17.20;74.10;;;;;;4993579;28;20971;-84
2024/03/21 03:14:22;;;;;;;0.40;0.40;;;17.20;74.10;;;;;;4968598;28;20500;-85
2024/03/21 03:16:48;;;;;;;0.60;0.60;;;17.20;74.20;;;;;;4984347;28;20061;-85
2024/03/21 03:19:13;;;;;;;1.23;0.68;;;17.20;74.20;;;;;;4965492;28;20125;-85
2024/03/21 03:21:39;;;;;;;0.50;0.50;;;17.10;74.00;;;;;;4967279;28;20053;-85
2024/03/21 03:24:05;;;;;;;1.02;1.02;;;17.20;74.10;;;;;;4985763;28;20042;-85
2024/03/21 03:26:31;;;;;;;0.70;0.70;;;17.20;74.10;;;;;;4983397;28;20041;-85
2024/03/21 03:28:56;;;;;;;0.77;0.77;;;17.10;74.10;;;;;;4985707;28;20091;-87
2024/03/21 03:31:22;;;;;;;0.90;0.90;;;17.20;74.10;;;;;;4965690;28;20129;-86
2024/03/21 03:36:32;;;;;;;0.70;0.70;;;17.20;75.00;;;;;;4987996;28;20047;-91
2024/03/21 03:38:57;;;;;;;0.73;0.73;;;17.20;74.10;;;;;;4990430;28;20034;-91
2024/03/21 03:41:23;;;;;;;0.80;0.80;;;17.10;73.90;;;;;;4987888;28;20053;-90
2024/03/21 03:43:49;;;;;;;0.80;0.80;;;17.10;74.00;;;;;;4984522;28;20058;-87
2024/03/21 03:46:14;;;;;;;0.70;0.60;;;17.10;73.90;;;;;;4967976;28;20084;-88
2024/03/21 03:48:40;;;;;;;0.68;0.68;;;17.10;74.40;;;;;;4984433;28;20058;-90
2024/03/21 03:51:05;;;;;;;0.85;0.85;;;17.10;74.10;;;;;;4988067;28;20034;-89
2024/03/21 03:53:31;;;;;;;0.50;0.50;;;17.10;74.00;;;;;;4970897;28;20113;-88
2024/03/21 03:55:57;;;;;;;0.60;0.60;;;17.10;73.80;;;;;;4972429;28;20034;-88
2024/03/21 03:58:22;;;;;;;0.85;0.85;;;17.10;74.00;;;;;;5002015;28;20097;-88
2024/03/21 04:00:57;;;;;;;0.70;0.70;;;17.10;74.20;;;;;;4990859;28;20047;-88
2024/03/21 04:03:23;;;;;;;0.82;0.60;;;17.10;73.90;;;;;;4984338;28;20035;-90
2024/03/21 04:06:00;;;;;;;0.75;0.75;;;17.10;74.00;;;;;;4992064;28;20045;-90
2024/03/21 04:08:25;;;;;;;1.02;0.75;;;17.10;73.90;;;;;;4989537;28;20098;-90
2024/03/21 04:10:51;;;;;;;0.60;0.60;;;17.10;74.10;;;;;;4991640;28;20120;-89
2024/03/21 04:13:17;;;;;;;0.70;0.70;;;17.10;74.00;;;;;;4974183;28;20528;-90
2024/03/21 04:15:42;;;;;;;0.70;0.70;;;17.10;74.00;;;;;;4992429;28;20037;-89
2024/03/21 04:18:08;;;;;;;0.80;0.80;;;17.10;74.00;;;;;;4989716;28;20523;-91
2024/03/21 04:20:33;;;;;;;0.60;0.60;;;17.10;74.00;;;;;;4991114;28;20124;-91
2024/03/21 04:22:59;;;;;;;0.70;0.70;;;17.10;74.00;;;;;;4988642;28;20412;-88
2024/03/21 04:25:25;;;;;;;0.88;0.88;;;17.10;74.00;;;;;;5005765;28;20046;-88
2024/03/21 04:27:50;;;;;;;0.80;0.80;;;17.10;73.90;;;;;;4989357;28;20050;-91
2024/03/21 04:30:16;;;;;;;1.15;0.70;;;17.10;74.00;;;;;;4991248;28;20042;-89
2024/03/21 04:32:42;;;;;;;0.90;0.90;;;17.10;73.90;;;;;;4973491;28;20177;-89
2024/03/21 04:35:08;;;;;;;0.80;0.80;;;17.10;74.00;;;;;;4991411;28;20041;-90
2024/03/21 04:37:34;;;;;;;1.30;1.02;;;17.10;73.90;;;;;;4975021;28;20043;-92
2024/03/21 04:39:59;;;;;;;1.00;1.00;;;17.10;73.90;;;;;;4959686;28;20092;-91
2024/03/21 04:42:25;;;;;;;0.70;0.70;;;17.10;74.10;;;;;;4983443;28;20054;-90
2024/03/21 04:44:50;;;;;;;0.70;0.70;;;17.10;74.00;;;;;;4988183;28;20488;-89
2024/03/21 04:47:16;;;;;;;0.80;0.80;;;17.10;74.00;;;;;;4987313;28;20038;-88
2024/03/21 04:49:42;;;;;;;0.80;0.80;;;17.10;74.00;;;;;;4975074;28;20061;-88
2024/03/21 04:52:07;;;;;;;1.20;1.10;;;17.10;73.90;;;;;;4969695;28;20499;-89
2024/03/21 04:54:33;;;;;;;0.80;0.77;;;17.10;74.20;;;;;;4971093;28;20069;-87
2024/03/21 04:56:58;;;;;;;0.98;0.98;;;17.10;73.90;;;;;;4990472;28;20045;-88
2024/03/21 04:59:27;;;;;;;0.80;0.80;;;17.10;74.10;;;;;;4954913;28;20089;-87
2024/03/21 05:01:53;;;;;;;0.75;0.75;;;17.10;74.10;;;;;;4985773;28;20053;-87
2024/03/21 05:04:18;;;;;;;0.88;0.88;;;17.10;73.90;;;;;;4986315;28;20042;-88
2024/03/21 05:06:44;;;;;;;0.88;0.88;;;17.00;73.80;;;;;;4987270;28;20093;-86
2024/03/21 05:09:10;;;;;;;0.90;0.90;;;17.10;73.90;;;;;;4991732;28;20065;-92
2024/03/21 05:11:35;;;;;;;1.10;1.00;;;17.10;74.00;;;;;;4975767;28;20104;-92
2024/03/21 05:14:01;;;;;;;0.95;0.95;;;17.10;73.80;;;;;;5008949;28;20042;-87
2024/03/21 05:16:28;;;;;;;0.77;0.77;;;17.10;74.00;;;;;;4954586;28;20516;-87
2024/03/21 05:18:54;;;;;;;0.80;0.80;;;17.10;74.60;;;;;;4986873;28;20046;-86
2024/03/21 05:21:21;;;;;;;2.80;1.05;;;17.10;73.80;;;;;;4990186;28;20062;-88
2024/03/21 05:23:46;;;;;;;0.80;0.80;;;17.10;73.90;;;;;;4990183;28;20501;-88
2024/03/21 05:26:12;;;;;;;1.00;1.00;;;17.00;73.90;;;;;;4993948;28;20030;-88
2024/03/21 05:28:37;;;;;;;2.25;0.95;;;17.00;73.80;;;;;;5008934;28;20057;-89
2024/03/21 05:31:20;;;;;;;0.80;0.80;;;17.00;74.20;;;;;;4993315;28;20042;-92
2024/03/21 05:33:49;;;;;;;0.95;0.95;;;17.10;73.90;;;;;;4991183;28;20050;-90
2024/03/21 05:36:16;;;;;;;1.00;1.00;;;17.10;73.90;;;;;;4988806;28;20069;-89
2024/03/21 05:38:44;;;;;;;1.10;1.10;;;17.10;74.60;;;;;;4989607;28;20049;-87
2024/03/21 05:41:10;;;;;;;1.20;1.10;;;17.10;73.90;;;;;;4987416;28;20093;-86
2024/03/21 05:43:37;;;;;;;1.38;1.27;;;17.10;73.90;;;;;;4986628;28;20050;-87
2024/03/21 05:46:02;;;;;;;1.65;0.93;;;17.00;73.80;;;;;;4990792;28;20104;-87
2024/03/21 05:48:28;;;;;;;0.90;0.90;;;17.00;73.90;;;;;;4987745;28;20050;-86
2024/03/21 05:50:54;;;;;;;0.93;0.93;;;17.00;73.90;;;;;;4989860;28;20500;-87
2024/03/21 05:53:19;;;;;;;1.10;1.10;;;17.00;74.00;;;;;;4970642;28;20042;-87
2024/03/21 05:55:59;;;;;;;0.77;0.77;;;17.00;74.00;;;;;;4988538;28;20126;-87
2024/03/21 05:58:25;;;;;;;1.02;1.02;;;17.00;73.80;;;;;;4970099;28;20046;-89
2024/03/21 06:00:55;;;;;;;1.15;1.10;;;17.00;73.80;;;;;;4954155;28;20109;-88
2024/03/21 06:03:20;;;;;;;1.30;1.20;;;17.00;73.80;;;;;;4982209;28;20030;-88
2024/03/21 06:05:47;;;;;;;1.38;1.30;;;17.00;73.90;;;;;;4987795;28;20046;-87
2024/03/21 06:08:12;;;;;;;1.35;1.35;;;17.10;73.90;;;;;;4986291;28;20046;-89
2024/03/21 06:10:38;;;;;;;1.33;1.27;;;17.00;73.70;;;;;;4968695;28;20550;-87
2024/03/21 06:13:03;;;;;;;1.42;1.33;;;17.00;73.70;;;;;;4984323;28;20501;-91
2024/03/21 06:15:30;;;;;;;1.58;1.48;;;17.00;73.60;;;;;;4964250;28;20046;-86
2024/03/21 06:17:55;;;;;;;1.15;1.05;;;17.00;73.60;;;;;;4970247;28;20078;-87
2024/03/21 06:20:21;;;;;;;1.20;1.10;;;17.00;74.00;;;;;;4985507;28;20076;-86
2024/03/21 06:22:47;;;;;;;1.13;1.02;;;17.10;75.70;;;;;;4987537;28;20039;-94
2024/03/21 06:25:13;;;;;;;1.30;1.20;;;17.10;75.90;;;;;;4991997;28;20511;-87
2024/03/21 06:27:39;;;;;;;1.15;1.10;;;17.10;76.40;;;;;;4985599;28;20056;-89
2024/03/21 06:30:05;;;;;;;1.23;1.13;;;17.10;75.80;;;;;;4970918;28;20108;-88
2024/03/21 06:32:31;;;;;;;1.20;1.10;;;17.10;75.70;;;;;;4969320;28;20042;-90
2024/03/21 06:34:56;;;;;;;1.20;1.10;;;17.10;76.30;;;;;;4969828;28;20054;-90
2024/03/21 06:37:22;;;;;;;1.00;1.00;;;17.10;76.20;;;;;;4966898;28;20502;-87
2024/03/21 06:39:48;;;;;;;1.40;1.30;;;17.10;76.30;;;;;;4986584;28;20069;-90
2024/03/21 06:42:13;;;;;;;1.20;1.10;;;17.00;76.00;;;;;;4984786;28;20050;-93
2024/03/21 06:44:39;;;;;;;1.00;1.00;;;17.10;76.80;;;;;;4988797;28;20046;-91
2024/03/21 06:47:05;;;;;;;1.20;1.20;;;17.00;75.90;;;;;;4957927;28;20038;-91
2024/03/21 06:49:30;;;;;;;1.00;1.00;;;17.10;76.10;;;;;;4990956;28;20488;-94
2024/03/21 06:51:56;;;;;;;1.35;1.25;;;17.10;76.40;;;;;;4988177;28;20038;-88
2024/03/21 06:54:21;;;;;;;1.47;1.37;;;17.10;76.00;;;;;;4644684;28;10000946;-90
2024/03/21 06:56:47;;;;;;;1.35;1.35;;;17.10;76.50;;;;;;4990937;28;20046;-92
2024/03/21 06:59:13;;;;;;;1.50;1.40;;;17.10;76.10;;;;;;4992349;28;20046;-89
2024/03/21 07:01:38;;;;;;;1.15;1.05;;;17.10;76.00;;;;;;4644412;28;10000006;-92
2024/03/21 07:04:07;;;;;;;1.27;1.20;;;17.10;76.10;;;;;;4999474;28;20046;-93
2024/03/21 07:06:33;;;;;;;1.17;1.17;;;17.10;76.10;;;;;;4968837;28;20076;-75
2024/03/21 07:08:59;;;;;;;1.30;1.20;;;17.10;76.10;;;;;;4982501;28;20130;-74
2024/03/21 07:11:24;;;;;;;0.90;0.90;;;17.10;76.00;;;;;;4967602;28;20046;-75
2024/03/21 07:13:50;;;;;;;0.80;0.80;;;17.10;75.90;;;;;;4967550;28;20052;-75
2024/03/21 07:16:17;;;;;;;0.90;0.90;;;17.10;75.90;;;;;;4982487;28;20058;-76
2024/03/21 07:18:42;;;;;;;0.90;0.90;;;17.20;76.10;;;;;;4980489;28;20052;-76
2024/03/21 07:21:08;;;;;;;1.10;1.00;;;17.30;76.00;;;;;;4977712;28;20039;-76
2024/03/21 07:23:33;;;;;;;1.95;1.20;;;17.30;76.10;;;;;;4963765;28;20397;-76
2024/03/21 07:25:59;;;;;;;0.80;0.80;;;17.30;75.90;;;;;;4963125;28;20085;-76
2024/03/21 07:28:24;;;;;;;0.88;0.88;;;17.30;75.80;;;;;;4952765;28;20046;-75
2024/03/21 07:30:54;;;;;;;1.00;1.00;;;17.30;75.90;;;;;;4986391;28;20141;-75
2024/03/21 07:33:19;;;;;;;0.80;0.80;;;17.30;75.90;;;;;;4983439;28;20042;-75
2024/03/21 07:35:55;;;;;;;1.10;1.10;;;17.30;76.90;;;;;;4985367;28;20053;-77
2024/03/21 07:38:21;;;;;;;2.17;1.17;;;17.20;75.90;;;;;;5001360;28;20158;-76
2024/03/21 07:40:59;;;;;;;1.63;1.23;;;17.20;75.80;;;;;;4971027;28;20558;-75
2024/03/21 07:43:25;;;;;;;1.30;1.20;;;17.20;76.10;;;;;;4987277;28;20385;-75
2024/03/21 07:45:51;;;;;;;1.48;1.38;;;17.30;75.90;;;;;;4971504;28;20100;-75
2024/03/21 07:48:17;;;;;;;1.55;1.45;;;17.20;76.30;;;;;;4971484;28;20054;-76
2024/03/21 07:50:42;;;;;;;1.50;1.40;;;17.20;76.40;;;;;;4990388;28;20734;-75
2024/03/21 07:53:08;;;;;;;2.00;1.90;;;17.20;76.50;;;;;;4971442;28;20038;-76
2024/03/21 07:55:33;;;;;;;1.90;1.60;;;17.20;76.10;;;;;;4984717;28;20535;-75
2024/03/21 07:58:02;;;;;;;2.17;1.63;;;17.20;75.90;;;;;;4992343;28;20485;-75
2024/03/21 08:00:28;;;;;;;1.90;1.80;;;17.20;75.90;;;;;;4990083;28;20030;-75
2024/03/21 08:02:54;;;;;;;2.55;1.73;;;17.20;75.90;;;;;;4991409;28;20519;-75
2024/03/21 08:05:20;;;;;;;2.25;1.35;;;17.20;75.90;;;;;;4987811;28;20049;-76
2024/03/21 08:07:46;;;;;;;1.60;1.50;;;17.20;75.80;;;;;;4990604;28;20038;-76
2024/03/21 08:10:12;;;;;;;1.40;1.40;;;17.20;75.80;;;;;;4994377;28;20620;-76
2024/03/21 08:12:37;;;;;;;1.50;1.40;;;17.20;75.70;;;;;;4957140;28;20135;-75
2024/03/21 08:15:04;;;;;;;1.50;1.50;;;17.20;75.70;;;;;;4973906;28;20242;-75
2024/03/21 08:17:30;;;;;;;1.73;1.30;;;17.30;75.60;;;;;;4974555;28;20484;-75
2024/03/21 08:19:56;;;;;;;1.38;1.20;;;17.20;75.60;;;;;;4990845;28;20558;-75
2024/03/21 08:22:22;;;;;;;1.58;1.48;;;17.20;75.60;;;;;;4992295;28;20101;-76
2024/03/21 08:24:48;;;;;;;1.20;1.20;;;17.20;75.50;;;;;;4991151;28;20050;-75
2024/03/21 08:27:17;;;;;;;1.50;1.40;;;17.20;75.50;;;;;;4975890;28;20088;-75
2024/03/21 08:29:43;;;;;;;1.30;1.30;;;17.20;75.60;;;;;;5005828;28;20101;-75
2024/03/21 08:32:11;;;;;;;1.10;1.10;;;17.20;75.50;;;;;;4979507;28;20046;-75
2024/03/21 08:34:36;;;;;;;1.42;1.33;;;17.30;75.50;;;;;;5006187;28;20053;-76
2024/03/21 08:37:02;;;;;;;1.23;1.23;;;17.30;75.50;;;;;;4991044;28;20406;-76
2024/03/21 08:39:28;;;;;;;2.20;1.60;;;17.30;75.50;;;;;;4973356;28;20043;-75
2024/03/21 08:41:53;;;;;;;1.33;1.33;;;17.30;75.30;;;;;;4991537;28;20054;-75
2024/03/21 08:44:19;;;;;;;1.23;1.15;;;17.30;75.30;;;;;;4986077;28;20050;-75
2024/03/21 08:46:44;;;;;;;1.40;1.30;;;17.30;75.40;;;;;;5004771;28;20039;-76
2024/03/21 08:49:11;;;;;;;0.90;0.90;;;17.30;75.40;;;;;;4990498;28;20508;-76
2024/03/21 08:51:37;;;;;;;1.27;1.27;;;17.30;75.20;;;;;;4989943;28;20093;-76
2024/03/21 08:54:03;;;;;;;1.35;1.25;;;17.30;76.00;;;;;;4991580;28;20042;-76
2024/03/21 08:56:31;;;;;;;1.40;1.25;;;17.30;75.20;;;;;;4979001;28;20420;-76
2024/03/21 08:58:56;;;;;;;1.38;1.30;;;17.30;75.10;;;;;;4985699;28;20054;-75
2024/03/21 09:01:22;;;;;;;1.20;1.10;;;17.30;75.10;;;;;;4990062;28;20092;-76
2024/03/21 09:03:47;;;;;;;1.55;1.27;;;17.30;75.20;;;;;;4991510;28;20403;-76
2024/03/21 09:06:13;;;;;;;2.10;1.10;;;17.30;75.10;;;;;;4993459;28;20125;-75
2024/03/21 09:08:38;;;;;;;1.10;1.10;;;17.30;75.10;;;;;;4990773;28;20484;-75
2024/03/21 09:11:04;;;;;;;1.00;1.00;;;17.30;75.10;;;;;;4990194;28;20140;-75
2024/03/21 09:13:30;;;;;;;2.08;1.20;;;17.30;75.00;;;;;;4988471;28;20046;-75
2024/03/21 09:15:57;;;;;;;1.40;1.30;;;17.30;75.00;;;;;;4989861;28;20042;-76
2024/03/21 09:18:22;;;;;;;1.20;1.10;;;17.30;75.00;;;;;;4987115;28;20078;-76
2024/03/21 09:20:50;;;;;;;1.02;1.02;;;17.30;75.10;;;;;;4994863;28;20128;-75
2024/03/21 09:23:15;;;;;;;1.10;1.10;;;17.30;75.10;;;;;;4981114;28;20039;-76
2024/03/21 09:25:41;;;;;;;0.98;0.98;;;17.30;75.90;;;;;;4973269;28;20034;-75
2024/03/21 09:28:06;;;;;;;1.20;1.10;;;17.30;75.00;;;;;;4989860;28;20035;-76
2024/03/21 09:30:32;;;;;;;1.05;1.00;;;17.30;75.00;;;;;;4989343;28;20534;-76
2024/03/21 09:32:58;;;;;;;0.88;0.88;;;17.30;74.90;;;;;;4990193;28;20301;-75
2024/03/21 09:35:23;;;;;;;1.02;1.00;;;17.40;75.00;;;;;;4953978;28;20049;-75
2024/03/21 09:37:49;;;;;;;1.27;1.27;;;17.40;75.00;;;;;;4957611;28;20061;-76
2024/03/21 09:40:17;;;;;;;1.30;1.15;;;17.40;75.00;;;;;;4989581;28;20046;-76
2024/03/21 09:42:42;;;;;;;1.17;1.17;;;17.40;75.00;;;;;;4988212;28;20067;-75
2024/03/21 09:45:12;;;;;;;1.50;1.40;;;17.40;74.90;;;;;;4990584;28;20042;-76
2024/03/21 09:47:39;;;;;;;1.20;1.20;;;17.40;74.90;;;;;;4989419;28;20117;-75
2024/03/21 09:50:06;;;;;;;1.05;1.05;;;17.40;74.70;;;;;;4971477;28;20046;-75
2024/03/21 09:52:32;;;;;;;1.10;1.10;;;17.50;74.70;;;;;;4997163;28;20062;-75
2024/03/21 09:54:57;;;;;;;1.27;1.20;;;17.40;75.40;;;;;;4988020;28;20552;-75
2024/03/21 09:57:23;;;;;;;1.02;1.02;;;17.50;74.70;;;;;;4988099;28;20027;-76
2024/03/21 09:59:49;;;;;;;1.00;1.00;;;17.50;74.60;;;;;;4989244;28;20093;-75
2024/03/21 10:02:14;;;;;;;1.10;1.10;;;17.50;74.50;;;;;;4994907;28;20050;-75
2024/03/21 10:04:42;;;;;;;1.23;1.13;;;17.50;75.20;;;;;;4971427;28;20042;-76
2024/03/21 10:07:17;;;;;;;1.30;1.30;;;17.50;74.40;;;;;;4988144;28;20049;-76
2024/03/21 10:09:45;;;;;;;0.90;0.90;;;17.50;74.40;;;;;;4989814;28;20181;-75
2024/03/21 10:12:10;;;;;;;1.17;1.13;;;17.50;74.30;;;;;;4989403;28;20141;-75
2024/03/21 10:14:36;;;;;;;1.02;1.02;;;17.50;74.40;;;;;;4979422;28;20171;-76
2024/03/21 10:17:03;;;;;;;1.02;1.02;;;17.60;74.20;;;;;;4983101;28;20034;-76
2024/03/21 10:19:28;;;;;;;1.30;1.30;;;17.60;74.10;;;;;;4965533;28;20045;-76
2024/03/21 10:21:54;;;;;;;1.10;1.10;;;17.70;74.60;;;;;;4988131;28;20054;-75
2024/03/21 10:24:19;;;;;;;1.25;1.15;;;17.70;72.80;;;;;;4988793;28;20097;-75
2024/03/21 10:26:45;;;;;;;0.90;0.90;;;17.80;72.40;;;;;;4988341;28;20046;-76
2024/03/21 10:29:10;;;;;;;1.10;1.10;;;17.90;72.50;;;;;;4988690;28;20053;-75
2024/03/21 10:31:36;;;;;;;1.20;1.20;;;17.90;72.50;;;;;;4972036;28;20085;-75
2024/03/21 10:34:02;;;;;;;1.13;1.13;;;17.90;72.50;;;;;;4988763;28;20491;-75
2024/03/21 10:36:27;;;;;;;0.90;0.90;;;17.90;72.40;;;;;;4988527;28;20085;-76
2024/03/21 10:38:53;;;;;;;1.45;1.35;;;17.90;72.50;;;;;;4989399;28;20042;-76
2024/03/21 10:41:25;;;;;;;1.48;1.13;;;18.00;72.50;;;;;;4988170;28;20093;-76
2024/03/21 10:43:54;;;;;;;1.20;1.20;;;18.00;73.30;;;;;;4955520;28;20046;-76
2024/03/21 10:46:19;;;;;;;1.50;1.40;;;18.00;72.50;;;;;;4964772;28;20035;-75
2024/03/21 10:48:45;;;;;;;1.20;1.20;;;18.00;72.20;;;;;;4987591;28;20042;-75
2024/03/21 10:51:15;;;;;;;1.00;1.00;;;18.00;72.90;;;;;;4989603;28;20748;-75
2024/03/21 10:53:59;;;;;;;1.75;1.65;;;18.00;72.90;;;;;;4988592;28;20059;-76
2024/03/21 10:56:38;;;;;;;1.15;1.15;;;18.00;72.10;;;;;;4997460;28;20039;-75
2024/03/21 10:59:04;;;;;;;1.50;1.38;;;18.00;72.20;;;;;;4987809;28;20046;-75
2024/03/21 11:01:43;;;;;;;1.52;1.52;;;18.00;72.30;;;;;;4986790;28;20050;-76
2024/03/21 11:04:10;;;;;;;2.15;1.52;;;18.00;72.30;;;;;;4988155;28;20043;-75
2024/03/21 11:06:41;;;;;;;1.40;1.30;;;18.00;72.30;;;;;;4988839;28;20045;-75
2024/03/21 11:09:06;;;;;;;1.02;1.02;;;18.00;72.30;;;;;;4989687;28;20496;-76
2024/03/21 11:11:32;;;;;;;1.55;1.45;;;18.00;72.30;;;;;;4982818;28;20043;-76
2024/03/21 11:14:04;;;;;;;1.10;1.10;;;18.00;72.30;;;;;;4950580;28;20428;-75
2024/03/21 11:16:30;;;;;;;1.20;1.20;;;18.00;72.80;;;;;;4967491;28;20039;-75
2024/03/21 11:18:56;;;;;;;1.00;1.00;;;18.00;72.40;;;;;;4988006;28;20049;-76
2024/03/21 11:21:22;;;;;;;1.40;1.40;;;18.00;72.30;;;;;;4984639;28;20118;-76
2024/03/21 11:23:48;;;;;;;1.00;1.00;;;18.10;72.30;;;;;;4983450;28;20117;-76
2024/03/21 11:26:14;;;;;;;1.30;1.30;;;18.10;72.20;;;;;;5001658;28;20500;-76
2024/03/21 11:28:40;;;;;;;1.17;1.17;;;18.10;72.20;;;;;;4985088;28;20060;-76
2024/03/21 11:31:19;;;;;;;1.15;1.15;;;18.10;72.10;;;;;;4986459;28;20412;-76
2024/03/21 11:33:46;;;;;;;1.15;1.05;;;18.10;72.00;;;;;;4969332;28;20156;-75
2024/03/21 11:36:12;;;;;;;1.00;1.00;;;18.10;72.00;;;;;;4986802;28;20035;-75
2024/03/21 11:38:37;;;;;;;1.25;1.25;;;18.20;71.90;;;;;;5000519;28;20061;-76
2024/03/21 11:41:04;;;;;;;1.23;1.23;;;18.10;71.90;;;;;;4983499;28;20414;-75
2024/03/21 11:43:30;;;;;;;0.93;0.93;;;18.10;71.90;;;;;;4992861;28;20504;-76
2024/03/21 11:45:58;;;;;;;1.50;1.50;;;18.10;71.90;;;;;;4969129;28;20046;-76
2024/03/21 11:48:26;;;;;;;2.25;1.50;;;18.10;71.90;;;;;;4986487;28;20042;-76
2024/03/21 11:50:52;;;;;;;1.55;1.17;;;18.10;71.90;;;;;;4984664;28;20031;-76
2024/03/21 11:53:18;;;;;;;0.98;0.98;;;18.20;71.90;;;;;;4984077;28;20424;-75
2024/03/21 11:55:44;;;;;;;1.13;1.13;;;18.20;71.90;;;;;;5001616;28;20101;-75
2024/03/21 11:58:10;;;;;;;1.35;1.27;;;18.20;71.90;;;;;;4983104;28;20050;-76
2024/03/21 12:00:35;;;;;;;1.05;1.05;;;18.20;72.00;;;;;;4982650;28;20038;-76
2024/03/21 12:03:01;;;;;;;1.30;1.20;;;18.20;71.90;;;;;;4987704;28;20050;-76
2024/03/21 12:05:26;;;;;;;1.23;1.23;;;18.20;72.00;;;;;;4970294;28;20051;-75
2024/03/21 12:07:52;;;;;;;1.30;1.20;;;18.20;71.90;;;;;;4990008;28;20137;-75
2024/03/21 12:10:18;;;;;;;1.30;1.20;;;18.20;71.80;;;;;;4968270;28;20046;-75
2024/03/21 12:12:43;;;;;;;0.85;0.85;;;18.20;71.90;;;;;;4985071;28;20087;-75
2024/03/21 12:15:09;;;;;;;1.00;1.00;;;18.20;71.90;;;;;;4969453;28;20050;-76
2024/03/21 12:17:35;;;;;;;0.90;0.90;;;18.20;71.70;;;;;;4986122;28;20027;-77
2024/03/21 12:20:01;;;;;;;1.65;1.55;;;18.20;71.70;;;;;;4983915;28;20121;-75
2024/03/21 12:22:27;;;;;;;1.20;1.20;;;18.30;71.70;;;;;;4970063;28;20077;-75
2024/03/21 12:24:53;;;;;;;1.13;1.00;;;18.20;71.60;;;;;;4988509;28;20467;-75
2024/03/21 12:27:18;;;;;;;0.98;0.98;;;18.20;71.60;;;;;;5005295;28;20112;-76
2024/03/21 12:29:46;;;;;;;1.40;1.30;;;18.20;71.70;;;;;;4642643;28;10000553;-76
2024/03/21 12:32:12;;;;;;;1.20;1.20;;;18.20;72.00;;;;;;4987770;28;20280;-76
2024/03/21 12:34:38;;;;;;;1.65;1.55;;;18.30;72.00;;;;;;4971936;28;20038;-76
2024/03/21 12:37:04;;;;;;;1.40;1.30;;;18.30;72.10;;;;;;4983765;28;20141;-75
2024/03/21 12:39:29;;;;;;;1.15;1.15;;;18.20;72.10;;;;;;4986199;28;20120;-75
2024/03/21 12:41:55;;;;;;;1.20;1.20;;;18.20;72.10;;;;;;4984859;28;20105;-75
2024/03/21 12:44:20;;;;;;;1.55;1.45;;;18.20;72.30;;;;;;4986817;28;20042;-76